Time;durP1;ratioP1;P1;durP2;ratioP2;P2;SDS_P1;SDS_P2;PMS_P1;PMS_P2;Temp;Humidity;BMP_temperature;BMP_pressure;BME280_temperature;BME280_humidity;BME280_pressure;Samples;Min_cycle;Max_cycle;Signal;HPM_P1;HPM_P2
2022/01/18 00:00:18;;;;;;;38.60;25.07;;;;;;;3.86;100.00;102267.13;5024019;28;21743;-46
2022/01/18 00:02:44;;;;;;;31.77;22.43;;;;;;;3.86;100.00;102277.38;5022657;28;20555;-46
2022/01/18 00:05:13;;;;;;;25.63;20.17;;;;;;;3.88;100.00;102278.31;5007567;28;20182;-47
2022/01/18 00:07:40;;;;;;;24.80;20.07;;;;;;;3.89;100.00;102277.53;5023490;28;20664;-46
2022/01/18 00:10:06;;;;;;;24.33;18.40;;;;;;;3.91;100.00;102272.50;5024331;28;20724;-46
2022/01/18 00:15:27;;;;;;;22.50;18.07;;;;;;;3.94;100.00;102285.44;5023170;28;20188;-46
2022/01/18 00:17:52;;;;;;;32.10;23.37;;;;;;;3.95;100.00;102282.97;5022749;28;20237;-47
2022/01/18 00:20:25;;;;;;;41.50;26.87;;;;;;;3.95;100.00;102282.97;5025824;28;20601;-47
2022/01/18 00:22:50;;;;;;;42.30;27.90;;;;;;;3.95;100.00;102279.50;5024078;28;20194;-47
2022/01/18 00:25:17;;;;;;;45.47;29.27;;;;;;;3.96;100.00;102279.59;5023457;28;20557;-47
2022/01/18 00:27:43;;;;;;;51.37;33.13;;;;;;;3.97;100.00;102285.59;5024149;28;20218;-47
2022/01/18 00:35:00;;;;;;;42.90;27.63;;;;;;;3.99;100.00;102294.25;5022273;28;20195;-46
2022/01/18 00:37:35;;;;;;;35.83;25.30;;;;;;;3.99;100.00;102291.69;5023567;28;20768;-46
2022/01/18 00:40:02;;;;;;;36.30;23.43;;;;;;;4.01;100.00;102300.34;5024826;28;20225;-46
2022/01/18 00:42:27;;;;;;;29.50;21.37;;;;;;;4.03;100.00;102296.16;5021554;28;20556;-47
2022/01/18 00:44:53;;;;;;;27.33;20.13;;;;;;;4.04;100.00;102303.06;5024684;28;20187;-46
2022/01/18 00:47:18;;;;;;;37.73;24.70;;;;;;;4.06;100.00;102306.56;5023757;28;20577;-47
2022/01/18 00:49:46;;;;;;;39.80;26.30;;;;;;;4.07;100.00;102305.78;5025169;28;20212;-47
2022/01/18 00:52:12;;;;;;;39.33;25.73;;;;;;;4.09;100.00;102298.16;5015390;28;20551;-47
2022/01/18 00:54:41;;;;;;;32.10;21.67;;;;;;;4.11;100.00;102305.09;5023432;28;20175;-47
2022/01/18 00:57:07;;;;;;;47.53;29.77;;;;;;;4.12;100.00;102293.19;5025648;28;20656;-47
2022/01/18 00:59:32;;;;;;;46.43;29.77;;;;;;;4.14;100.00;102300.94;5024286;28;20222;-47
2022/01/18 01:01:58;;;;;;;47.90;30.50;;;;;;;4.14;100.00;102296.72;5022107;28;20267;-47
2022/01/18 01:04:27;;;;;;;42.47;29.20;;;;;;;4.14;100.00;102295.81;5024987;28;20180;-47
2022/01/18 01:06:53;;;;;;;42.53;28.73;;;;;;;4.12;100.00;102291.50;5019499;28;20579;-48
2022/01/18 01:09:18;;;;;;;39.40;28.10;;;;;;;4.14;100.00;102295.81;5022416;28;20238;-46
2022/01/18 01:11:44;;;;;;;35.70;24.73;;;;;;;4.13;100.00;102300.06;5020553;28;20180;-47
2022/01/18 01:14:17;;;;;;;37.97;25.83;;;;;;;4.13;100.00;102300.06;5021854;28;20177;-47
2022/01/18 01:43:23;;;;;;;44.23;28.73;;;;;;;4.21;100.00;102303.88;5024184;28;20266;-46
2022/01/18 01:45:51;;;;;;;43.63;28.37;;;;;;;4.22;100.00;102297.97;5029000;28;20758;-46
2022/01/18 01:48:18;;;;;;;43.57;27.60;;;;;;;4.24;100.00;102301.47;5016991;28;20213;-45
2022/01/18 01:50:55;;;;;;;41.03;27.57;;;;;;;4.25;100.00;102297.22;5024073;28;20195;-47
2022/01/18 01:53:22;;;;;;;45.67;29.23;;;;;;;4.25;100.00;102298.13;5029044;28;20527;-47
2022/01/18 01:55:49;;;;;;;44.87;27.70;;;;;;;4.25;100.00;102300.69;5029928;28;20570;-48
2022/01/18 01:58:15;;;;;;;48.77;31.17;;;;;;;4.26;100.00;102304.09;5020488;28;20259;-47
2022/01/18 02:00:46;;;;;;;53.73;32.80;;;;;;;4.27;100.00;102308.44;5020091;28;20191;-47
2022/01/18 02:03:13;;;;;;;50.80;31.97;;;;;;;4.27;100.00;102311.88;5029223;28;20196;-48
2022/01/18 02:05:39;;;;;;;46.13;30.83;;;;;;;4.31;100.00;102309.47;5029367;28;20185;-48
2022/01/18 02:08:07;;;;;;;52.13;33.77;;;;;;;4.32;100.00;102300.97;5019479;28;20840;-47
2022/01/18 02:10:37;;;;;;;49.43;33.57;;;;;;;4.34;100.00;102294.22;5024565;28;20637;-46
2022/01/18 02:13:07;;;;;;;43.23;29.63;;;;;;;4.33;100.00;102285.69;5018339;28;20198;-48
2022/01/18 02:15:40;;;;;;;42.10;28.43;;;;;;;4.34;100.00;102284.88;5025454;28;20693;-48
2022/01/18 02:23:36;;;;;;;39.37;26.57;;;;;;;4.37;100.00;102282.47;5027139;28;20215;-46
2022/01/18 02:26:02;;;;;;;33.83;23.33;;;;;;;4.37;100.00;102274.78;5027118;28;20730;-47
2022/01/18 02:28:28;;;;;;;29.33;21.97;;;;;;;4.38;100.00;102270.50;5025965;28;20407;-47
2022/01/18 02:30:54;;;;;;;26.60;19.47;;;;;;;4.39;100.00;102278.25;5019901;28;20187;-48
2022/01/18 02:33:20;;;;;;;29.90;21.07;;;;;;;4.40;100.00;102276.59;5025302;28;20197;-47
2022/01/18 02:35:46;;;;;;;28.70;22.50;;;;;;;4.40;100.00;102279.16;5022254;28;20267;-47
2022/01/18 02:38:12;;;;;;;29.13;21.73;;;;;;;4.39;100.00;102279.97;5027504;28;20207;-46
2022/01/18 02:40:38;;;;;;;26.50;20.27;;;;;;;4.39;100.00;102274.84;5027581;28;20714;-47
2022/01/18 02:45:52;;;;;;;22.77;18.17;;;;;;;4.38;100.00;102273.97;5028036;28;20201;-46
2022/01/18 02:48:18;;;;;;;21.43;16.30;;;;;;;4.39;100.00;102272.28;5021691;28;20244;-46
2022/01/18 02:50:44;;;;;;;19.23;14.57;;;;;;;4.40;100.00;102279.16;5020978;28;20202;-47
2022/01/18 02:53:10;;;;;;;19.27;14.70;;;;;;;4.39;100.00;102270.56;5024648;28;20196;-47
2022/01/18 02:55:35;;;;;;;17.13;13.83;;;;;;;4.41;100.00;102274.09;5028462;28;20210;-47
2022/01/18 02:58:08;;;;;;;15.30;13.70;;;;;;;4.43;100.00;102271.63;5022507;28;20224;-47
2022/01/18 03:03:11;;;;;;;17.17;13.77;;;;;;;4.43;100.00;102272.50;5025295;28;20189;-47
2022/01/18 03:03:27;;;;;;;21.23;16.60;;;;;;;4.43;100.00;102266.50;5020217;28;20232;-47
2022/01/18 03:05:52;;;;;;;18.37;15.40;;;;;;;4.44;100.00;102268.25;5027620;28;20184;-47
2022/01/18 03:08:18;;;;;;;17.17;13.77;;;;;;;4.43;100.00;102272.50;5018633;28;20746;-49
2022/01/18 03:10:44;;;;;;;15.67;13.17;;;;;;;4.44;100.00;102278.50;5024734;28;20195;-46
2022/01/18 03:13:09;;;;;;;16.20;13.10;;;;;;;4.45;100.00;102282.84;5021216;28;20735;-48
2022/01/18 03:15:35;;;;;;;13.57;12.13;;;;;;;4.45;100.00;102276.81;5024246;28;20204;-48
2022/01/18 03:18:02;;;;;;;12.90;11.20;;;;;;;4.46;100.00;102271.78;5023392;28;20221;-48
2022/01/18 03:20:28;;;;;;;12.47;10.60;;;;;;;4.47;100.00;102276.06;5025177;28;20300;-47
2022/01/18 03:22:53;;;;;;;14.70;12.47;;;;;;;4.47;100.00;102286.31;5027265;28;20821;-47
2022/01/18 03:28:05;;;;;;;15.43;12.63;;;;;;;4.34;100.00;102290.00;5028474;28;20737;-49
2022/01/18 03:30:42;;;;;;;14.13;12.10;;;;;;;4.29;100.00;102280.34;5027042;28;20890;-52
2022/01/18 03:33:13;;;;;;;11.93;10.47;;;;;;;4.28;100.00;102274.31;5022879;28;20200;-45
2022/01/18 03:35:40;;;;;;;10.90;9.80;;;;;;;4.30;100.00;102264.16;5025430;28;20203;-47
2022/01/18 03:38:06;;;;;;;11.17;9.37;;;;;;;4.29;100.00;102264.94;5024280;28;20257;-48
2022/01/18 03:40:32;;;;;;;10.40;9.27;;;;;;;4.24;100.00;102270.72;5021600;28;20180;-47
2022/01/18 03:42:59;;;;;;;10.40;9.00;;;;;;;4.20;100.00;102270.50;5024769;28;20198;-46
2022/01/18 03:45:32;;;;;;;8.53;7.63;;;;;;;4.20;100.00;102263.69;5031098;28;20219;-47
2022/01/18 03:48:02;;;;;;;8.60;7.67;;;;;;;4.19;100.00;102256.78;5025042;28;20227;-48
2022/01/18 03:50:28;;;;;;;9.47;7.93;;;;;;;4.20;100.00;102262.81;5025596;28;20196;-47
2022/01/18 03:52:53;;;;;;;9.03;8.13;;;;;;;4.21;100.00;102268.00;5021895;28;20555;-46
2022/01/18 03:55:21;;;;;;;9.30;8.40;;;;;;;4.24;100.00;102273.28;5018312;28;20250;-49
2022/01/18 03:57:47;;;;;;;11.50;9.73;;;;;;;4.26;100.00;102273.34;5021870;28;20650;-47
2022/01/18 04:00:25;;;;;;;12.77;10.97;;;;;;;4.26;100.00;102276.81;5020760;28;20696;-48
2022/01/18 04:02:52;;;;;;;12.43;11.03;;;;;;;4.26;100.00;102275.91;5022924;28;20188;-48
2022/01/18 04:05:18;;;;;;;12.03;10.83;;;;;;;4.24;100.00;102280.97;5019672;28;20188;-47
2022/01/18 04:07:45;;;;;;;13.40;11.00;;;;;;;4.25;100.00;102280.16;5022913;28;20207;-48
2022/01/18 04:10:11;;;;;;;23.47;15.07;;;;;;;4.27;100.00;102285.38;5023488;28;20545;-47
2022/01/18 04:12:37;;;;;;;30.13;19.47;;;;;;;4.26;100.00;102284.50;5022292;28;20528;-47
2022/01/18 04:15:04;;;;;;;26.17;17.67;;;;;;;4.26;100.00;102281.94;5025411;28;20214;-46
2022/01/18 04:28:42;;;;;;;22.47;15.40;;;;;;;4.33;100.00;102287.34;5015959;28;20238;-47
2022/01/18 04:31:09;;;;;;;22.57;14.90;;;;;;;4.34;100.00;102289.09;5022707;28;20265;-46
2022/01/18 04:33:36;;;;;;;17.30;13.30;;;;;;;4.33;100.00;102293.38;5023637;28;20184;-47
2022/01/18 04:36:04;;;;;;;17.47;13.53;;;;;;;4.34;100.00;102294.22;5024649;28;20195;-47
2022/01/18 04:38:30;;;;;;;14.50;12.10;;;;;;;4.34;100.00;102284.88;5020514;28;20603;-46
2022/01/18 04:41:01;;;;;;;13.80;11.30;;;;;;;4.35;100.00;102283.19;5021028;28;20192;-47
2022/01/18 04:43:50;;;;;;;13.53;11.70;;;;;;;4.34;100.00;102283.97;5024536;28;20589;-47
2022/01/18 04:49:01;;;;;;;14.37;11.53;;;;;;;4.31;100.00;102287.28;5023890;28;20761;-47
2022/01/18 04:51:27;;;;;;;13.27;11.40;;;;;;;4.30;100.00;102293.22;5021378;28;20508;-47
2022/01/18 04:53:56;;;;;;;12.70;11.40;;;;;;;4.29;100.00;102293.16;5024881;28;20246;-47
2022/01/18 04:57:51;;;;;;;13.63;11.90;;;;;;;4.28;100.00;102299.94;5027467;28;20612;-48
2022/01/18 04:59:13;;;;;;;14.90;12.77;;;;;;;4.26;100.00;102305.00;5027604;28;20230;-47
2022/01/18 05:01:40;;;;;;;15.07;12.50;;;;;;;4.25;100.00;102299.78;5027628;28;20266;-48
2022/01/18 05:04:06;;;;;;;14.23;11.23;;;;;;;4.23;100.00;102302.28;5026488;28;20425;-47
2022/01/18 05:06:31;;;;;;;15.00;13.07;;;;;;;4.23;100.00;102299.72;5024451;28;20198;-47
2022/01/18 05:09:00;;;;;;;15.17;12.33;;;;;;;4.24;100.00;102298.91;5023671;28;20632;-47
2022/01/18 05:11:28;;;;;;;15.53;13.10;;;;;;;4.25;100.00;102289.53;5030907;28;20643;-47
2022/01/18 05:19:27;;;;;;;23.93;18.20;;;;;;;4.23;100.00;102299.72;5024511;28;20571;-47
2022/01/18 05:24:23;;;;;;;19.50;16.20;;;;;;;4.18;100.00;102305.41;5023029;28;20529;-47
2022/01/18 05:26:48;;;;;;;21.47;16.83;;;;;;;4.14;100.00;102306.06;5024206;28;20197;-47
2022/01/18 05:29:14;;;;;;;20.03;16.77;;;;;;;4.10;100.00;102298.22;5024782;28;20726;-47
2022/01/18 05:31:41;;;;;;;21.17;16.33;;;;;;;4.10;100.00;102303.34;5027661;28;20195;-47
2022/01/18 05:34:06;;;;;;;16.77;14.60;;;;;;;4.09;100.00;102299.00;5025088;28;20287;-47
2022/01/18 05:36:32;;;;;;;17.87;14.83;;;;;;;4.10;100.00;102307.59;5028572;28;20278;-46
2022/01/18 05:38:58;;;;;;;17.73;15.17;;;;;;;4.09;100.00;102305.84;5026610;28;20549;-46
2022/01/18 05:41:23;;;;;;;18.67;14.57;;;;;;;4.07;100.00;102310.91;5024944;28;20193;-47
2022/01/18 05:43:49;;;;;;;20.93;16.07;;;;;;;4.07;100.00;102308.34;5026499;28;20244;-47
2022/01/18 05:46:14;;;;;;;17.57;15.67;;;;;;;4.06;100.00;102303.13;5021176;28;20314;-46
2022/01/18 05:48:40;;;;;;;17.47;15.53;;;;;;;4.05;100.00;102303.91;5021430;28;20219;-47
2022/01/18 05:51:05;;;;;;;16.53;13.57;;;;;;;4.05;100.00;102314.16;5028074;28;20179;-46
2022/01/18 05:53:35;;;;;;;17.10;14.03;;;;;;;4.05;100.00;102316.72;5022140;28;20196;-47
2022/01/18 05:56:01;;;;;;;17.80;15.40;;;;;;;4.04;100.00;102315.88;5020108;28;20342;-46
2022/01/18 05:58:27;;;;;;;18.10;13.73;;;;;;;4.03;100.00;102314.09;5020741;28;20208;-47
2022/01/18 06:00:53;;;;;;;16.10;14.37;;;;;;;4.02;100.00;102325.16;5021676;28;20188;-47
2022/01/18 06:03:27;;;;;;;19.10;16.20;;;;;;;4.01;100.00;102322.53;5026732;28;20214;-47
2022/01/18 06:08:42;;;;;;;16.60;13.93;;;;;;;3.97;100.00;102327.47;5024844;28;20241;-46
2022/01/18 06:11:07;;;;;;;15.10;13.20;;;;;;;3.97;100.00;102327.47;5020779;28;20628;-46
2022/01/18 06:13:33;;;;;;;16.57;12.77;;;;;;;3.96;100.00;102320.59;5025353;28;20207;-46
2022/01/18 06:15:58;;;;;;;14.50;12.77;;;;;;;3.97;100.00;102330.03;5024817;28;20191;-46
2022/01/18 06:18:24;;;;;;;15.00;12.87;;;;;;;3.97;100.00;102329.16;5025134;28;20329;-46
2022/01/18 06:20:49;;;;;;;14.57;13.03;;;;;;;3.96;100.00;102324.81;5028207;28;20607;-46
2022/01/18 06:23:15;;;;;;;15.70;12.80;;;;;;;3.94;100.00;102322.19;5017020;28;20196;-46
2022/01/18 06:25:41;;;;;;;12.63;11.33;;;;;;;3.95;100.00;102318.84;5021960;28;20553;-46
2022/01/18 06:28:07;;;;;;;13.60;11.27;;;;;;;3.95;100.00;102318.84;5026441;28;20246;-46
2022/01/18 06:30:32;;;;;;;13.50;11.83;;;;;;;3.95;100.00;102320.50;5024431;28;20200;-45
2022/01/18 06:32:57;;;;;;;12.83;11.47;;;;;;;3.91;100.00;102333.97;5017683;28;20612;-47
2022/01/18 06:35:23;;;;;;;13.10;11.70;;;;;;;3.87;100.00;102329.50;5029335;28;20219;-47
2022/01/18 06:37:48;;;;;;;13.47;11.33;;;;;;;3.84;100.00;102325.09;5023759;28;20769;-46
2022/01/18 06:40:17;;;;;;;13.70;11.73;;;;;;;3.83;100.00;102342.94;5023600;28;20610;-48
2022/01/18 06:42:42;;;;;;;14.33;12.27;;;;;;;3.80;100.00;102335.97;5024944;28;20247;-45
2022/01/18 06:45:09;;;;;;;12.90;11.23;;;;;;;3.79;100.00;102337.63;5024353;28;20607;-47
2022/01/18 06:47:37;;;;;;;13.23;11.63;;;;;;;3.79;100.00;102350.44;5022304;28;20187;-47
2022/01/18 06:50:04;;;;;;;15.20;12.13;;;;;;;3.81;100.00;102348.00;5020698;28;20199;-47
2022/01/18 06:52:29;;;;;;;14.13;11.77;;;;;;;3.81;100.00;102356.53;5026336;28;20666;-46
2022/01/18 06:54:55;;;;;;;15.73;12.27;;;;;;;3.79;100.00;102349.59;5026240;28;20211;-46
2022/01/18 06:57:20;;;;;;;13.77;12.37;;;;;;;3.76;100.00;102355.44;5022798;28;20199;-47
2022/01/18 06:59:46;;;;;;;14.67;13.07;;;;;;;3.74;100.00;102357.03;5023571;28;20214;-46
2022/01/18 07:02:11;;;;;;;16.70;13.37;;;;;;;3.72;100.00;102360.28;5022815;28;20207;-46
2022/01/18 07:04:36;;;;;;;14.20;12.70;;;;;;;3.71;100.00;102366.22;5024582;28;20206;-46
2022/01/18 07:07:03;;;;;;;15.83;13.77;;;;;;;3.71;100.00;102359.41;5026857;28;20538;-46
2022/01/18 07:09:28;;;;;;;21.37;18.30;;;;;;;3.74;100.00;102361.25;5029176;28;20574;-46
2022/01/18 07:11:56;;;;;;;21.77;18.43;;;;;;;3.76;100.00;102359.66;5025696;28;20188;-46
2022/01/18 07:14:23;;;;;;;20.70;16.17;;;;;;;3.76;100.00;102363.13;5024767;28;20207;-46
2022/01/18 07:16:49;;;;;;;18.50;15.07;;;;;;;3.79;100.00;102359.81;5020930;28;20203;-46
2022/01/18 07:19:15;;;;;;;16.17;13.93;;;;;;;3.81;100.00;102366.78;5021602;28;20268;-45
2022/01/18 07:21:41;;;;;;;15.03;12.97;;;;;;;3.84;100.00;102367.75;5026068;28;20789;-46
2022/01/18 07:24:16;;;;;;;14.67;12.73;;;;;;;3.85;100.00;102372.06;5023190;28;20204;-46
2022/01/18 07:26:43;;;;;;;15.10;13.00;;;;;;;3.88;100.00;102359.44;5024112;28;20232;-46
2022/01/18 07:29:08;;;;;;;13.40;11.70;;;;;;;3.90;100.00;102373.19;5024522;28;20229;-46
2022/01/18 07:31:33;;;;;;;17.33;14.93;;;;;;;3.91;100.00;102377.53;5021580;28;20188;-46
2022/01/18 07:33:59;;;;;;;15.03;12.93;;;;;;;3.90;100.00;102376.63;5022221;28;20711;-46
2022/01/18 07:36:24;;;;;;;16.17;13.00;;;;;;;3.89;100.00;102385.13;5019709;28;20200;-47
2022/01/18 07:38:50;;;;;;;13.87;11.27;;;;;;;3.88;100.00;102380.78;5021879;28;20208;-46
2022/01/18 07:41:17;;;;;;;13.20;11.57;;;;;;;3.90;100.00;102381.75;5022927;28;20187;-46
2022/01/18 07:43:42;;;;;;;14.40;12.07;;;;;;;3.94;100.00;102393.03;5027794;28;20285;-47
2022/01/18 07:46:08;;;;;;;15.10;12.83;;;;;;;3.92;100.00;102397.22;5021022;28;20265;-46
2022/01/18 07:48:33;;;;;;;14.00;12.20;;;;;;;3.94;100.00;102393.94;5021896;28;20740;-46
2022/01/18 07:50:59;;;;;;;14.07;11.57;;;;;;;3.96;100.00;102392.34;5022326;28;20186;-46
2022/01/18 07:53:28;;;;;;;12.83;10.67;;;;;;;3.99;100.00;102398.41;5028572;28;20194;-46
2022/01/18 07:55:53;;;;;;;15.33;12.37;;;;;;;4.02;100.00;102403.69;5020098;28;20192;-46
2022/01/18 07:58:19;;;;;;;17.63;12.83;;;;;;;4.04;100.00;102402.09;5015528;28;20206;-46
2022/01/18 08:00:47;;;;;;;14.77;12.73;;;;;;;4.05;100.00;102403.84;5033576;28;20199;-46
2022/01/18 08:03:13;;;;;;;14.70;12.30;;;;;;;4.07;100.00;102405.72;5025611;28;20481;-46
2022/01/18 08:05:38;;;;;;;14.23;12.13;;;;;;;4.08;100.00;102402.31;5024424;28;20273;-46
2022/01/18 08:08:05;;;;;;;15.13;11.97;;;;;;;4.12;100.00;102403.38;5026484;28;20900;-46
2022/01/18 08:10:31;;;;;;;14.47;12.77;;;;;;;4.15;100.00;102395.84;5026378;28;20199;-46
2022/01/18 08:13:00;;;;;;;16.90;13.83;;;;;;;4.16;100.00;102405.28;5020267;28;20302;-46
2022/01/18 08:15:28;;;;;;;16.27;14.23;;;;;;;4.17;100.00;102396.78;5021382;28;20232;-45
2022/01/18 08:17:54;;;;;;;19.20;15.33;;;;;;;4.19;100.00;102400.31;5025440;28;20626;-45
2022/01/18 08:20:21;;;;;;;17.87;14.80;;;;;;;4.23;100.00;102393.69;5028230;28;20195;-46
2022/01/18 08:22:46;;;;;;;16.33;14.60;;;;;;;4.28;100.00;102397.34;5017096;28;20259;-46
2022/01/18 08:25:14;;;;;;;14.80;12.67;;;;;;;4.36;100.00;102403.75;5029185;28;20687;-46
2022/01/18 08:27:45;;;;;;;16.03;13.40;;;;;;;4.45;100.00;102399.88;5030474;28;20608;-46
2022/01/18 08:30:13;;;;;;;16.53;12.93;;;;;;;4.50;100.00;102393.31;5032927;28;20600;-46
2022/01/18 08:32:39;;;;;;;14.80;13.20;;;;;;;4.54;100.00;102390.06;5026976;28;20200;-46
2022/01/18 08:35:06;;;;;;;16.47;14.10;;;;;;;4.54;100.00;102390.06;5034474;28;20653;-46
2022/01/18 08:37:31;;;;;;;14.83;13.17;;;;;;;4.56;100.00;102391.94;5033129;28;20204;-46
2022/01/18 08:39:57;;;;;;;17.87;14.93;;;;;;;4.62;100.00;102395.59;5030924;28;20274;-46
2022/01/18 08:42:22;;;;;;;16.20;14.50;;;;;;;4.69;100.00;102389.97;5026617;28;20196;-46
2022/01/18 08:44:48;;;;;;;18.10;14.97;;;;;;;4.75;100.00;102386.81;5027920;28;20183;-46
2022/01/18 08:47:15;;;;;;;17.57;15.17;;;;;;;4.81;100.00;102382.88;5033268;28;20189;-45
2022/01/18 08:49:40;;;;;;;16.63;14.80;;;;;;;4.90;100.00;102384.13;5031477;28;20306;-47
2022/01/18 08:52:06;;;;;;;19.90;16.23;;;;;;;4.94;100.00;102380.88;5029663;28;20196;-47
2022/01/18 08:54:32;;;;;;;18.07;15.90;;;;;;;5.00;100.00;102387.19;5022499;28;20185;-47
2022/01/18 08:56:58;;;;;;;20.83;18.03;;;;;;;5.05;100.00;102387.44;5030702;28;20191;-47
2022/01/18 08:59:24;;;;;;;20.97;18.50;;;;;;;5.09;100.00;102384.19;5031721;28;20200;-47
2022/01/18 09:01:50;;;;;;;22.60;19.47;;;;;;;5.16;100.00;102386.25;5032933;28;20594;-47
2022/01/18 09:04:15;;;;;;;22.17;19.70;;;;;;;5.22;100.00;102383.09;5030842;28;20191;-47
2022/01/18 09:06:41;;;;;;;22.93;19.83;;;;;;;5.30;100.00;102386.00;5017212;28;20542;-47
2022/01/18 09:09:08;;;;;;;23.30;19.97;;;;;;;5.34;100.00;102385.34;5031017;28;20595;-46
2022/01/18 09:11:33;;;;;;;23.03;20.60;;;;;;;5.46;100.00;102390.16;5031571;28;20730;-46
2022/01/18 09:13:59;;;;;;;23.87;20.30;;;;;;;5.55;100.00;102380.31;5022980;28;20273;-46
2022/01/18 09:16:24;;;;;;;26.03;20.30;;;;;;;5.57;100.00;102382.94;5032547;28;20190;-47
2022/01/18 09:18:52;;;;;;;25.43;19.97;;;;;;;5.56;100.00;102378.63;5031188;28;20251;-46
2022/01/18 09:21:18;;;;;;;25.43;20.57;;;;;;;5.60;100.00;102378.81;5032061;28;20184;-46
2022/01/18 09:23:44;;;;;;;22.10;19.53;;;;;;;5.62;100.00;102381.47;5030664;28;20185;-47
2022/01/18 09:26:13;;;;;;;25.47;20.20;;;;;;;5.61;100.00;102372.00;5030463;28;20209;-47
2022/01/18 09:28:38;;;;;;;23.20;19.13;;;;;;;5.65;100.00;102376.47;5027603;28;20230;-47
2022/01/18 09:31:04;;;;;;;23.20;19.93;;;;;;;5.62;100.00;102384.03;5024697;28;20717;-47
2022/01/18 09:33:29;;;;;;;22.97;20.47;;;;;;;5.65;100.00;102382.50;5024488;28;20222;-47
2022/01/18 09:35:55;;;;;;;22.87;18.67;;;;;;;5.74;100.00;102384.59;5029563;28;20276;-47
2022/01/18 09:38:20;;;;;;;22.33;18.73;;;;;;;5.79;100.00;102385.69;5015922;28;20207;-47
2022/01/18 09:40:46;;;;;;;23.50;19.17;;;;;;;5.79;100.00;102380.56;5023416;28;20196;-46
2022/01/18 09:43:14;;;;;;;23.77;20.37;;;;;;;5.94;100.00;102390.59;5023593;28;20187;-46
2022/01/18 09:45:42;;;;;;;21.77;17.33;;;;;;;5.98;100.00;102394.19;5013811;28;20183;-46
2022/01/18 09:48:08;;;;;;;25.00;18.97;;;;;;;5.94;100.00;102393.19;5016162;28;20213;-46
2022/01/18 09:50:38;;;;;;;21.53;17.73;;;;;;;5.94;100.00;102402.59;5030896;28;20197;-46
2022/01/18 09:53:08;;;;;;;23.37;18.53;;;;;;;5.96;100.00;102406.13;5023387;28;20190;-46
2022/01/18 09:55:34;;;;;;;23.40;19.33;;;;;;;5.92;100.00;102401.66;5029988;28;20204;-46
2022/01/18 09:58:04;;;;;;;23.40;18.40;;;;;;;5.99;100.00;102407.94;5029706;28;20677;-46
2022/01/18 10:00:31;;;;;;;20.87;18.37;;;;;;;6.11;100.00;102408.50;5031578;28;20184;-46
2022/01/18 10:02:57;;;;;;;22.80;19.03;;;;;;;6.24;100.00;102413.34;5030021;28;20183;-46
2022/01/18 10:05:24;;;;;;;22.67;18.40;;;;;;;6.34;100.00;102406.06;5031598;28;20195;-46
2022/01/18 10:08:02;;;;;;;25.17;19.17;;;;;;;6.36;100.00;102399.25;5022437;28;20688;-46
2022/01/18 10:10:55;;;;;;;23.87;19.87;;;;;;;6.28;100.00;102401.50;5024872;28;20672;-46
2022/01/18 10:13:22;;;;;;;24.07;19.60;;;;;;;6.34;100.00;102401.78;5018837;28;20222;-46
2022/01/18 10:16:09;;;;;;;22.87;19.23;;;;;;;6.44;100.00;102402.16;5026983;28;20714;-46
2022/01/18 10:18:46;;;;;;;23.50;19.87;;;;;;;6.42;100.00;102402.09;5025940;28;20229;-46
2022/01/18 10:21:15;;;;;;;24.90;19.93;;;;;;;6.37;100.00;102398.44;5030653;28;20189;-45
2022/01/18 10:23:48;;;;;;;25.43;18.33;;;;;;;6.34;100.00;102395.78;5031215;28;20616;-46
2022/01/18 10:26:25;;;;;;;24.80;20.67;;;;;;;6.46;100.00;102395.38;5029203;28;20195;-46
2022/01/18 10:29:05;;;;;;;25.40;20.03;;;;;;;6.50;100.00;102394.72;5029136;28;20309;-47
2022/01/18 10:31:37;;;;;;;22.63;19.73;;;;;;;6.60;100.00;102394.28;5026317;28;20190;-46
2022/01/18 10:34:24;;;;;;;24.23;21.63;;;;;;;6.70;100.00;102392.97;5021710;28;20199;-47
2022/01/18 10:36:53;;;;;;;24.70;20.60;;;;;;;6.61;100.00;102390.03;5029580;28;20180;-46
2022/01/18 10:39:26;;;;;;;26.57;20.60;;;;;;;6.64;100.00;102379.84;5030421;28;20290;-46
2022/01/18 10:41:52;;;;;;;26.07;21.33;;;;;;;6.71;100.00;102390.47;5028983;28;20656;-46
2022/01/18 10:44:18;;;;;;;22.97;19.80;;;;;;;6.77;100.00;102382.13;5025110;28;20183;-46
2022/01/18 10:46:43;;;;;;;26.20;20.40;;;;;;;6.73;100.00;102385.38;5004940;28;20191;-46
2022/01/18 10:49:09;;;;;;;23.17;19.53;;;;;;;6.84;100.00;102376.38;5016797;28;20284;-48
2022/01/18 10:51:38;;;;;;;23.23;19.37;;;;;;;6.90;100.00;102372.31;5030239;28;20676;-48
2022/01/18 10:54:06;;;;;;;24.07;20.00;;;;;;;6.90;100.00;102370.59;5030025;28;20202;-47
2022/01/18 10:56:44;;;;;;;23.67;19.07;;;;;;;6.89;100.00;102370.53;5028178;28;20188;-47
2022/01/18 10:59:23;;;;;;;23.37;18.40;;;;;;;6.95;100.00;102361.38;5029748;28;20209;-47
2022/01/18 11:02:14;;;;;;;19.87;15.83;;;;;;;7.03;100.00;102364.25;5022652;28;20538;-48
2022/01/18 11:04:42;;;;;;;19.20;17.03;;;;;;;7.08;100.00;102360.16;5010793;28;20526;-47
2022/01/18 11:07:09;;;;;;;19.27;16.83;;;;;;;7.07;100.00;102347.22;5017452;28;20527;-47
2022/01/18 11:09:35;;;;;;;20.30;15.70;;;;;;;7.14;100.00;102344.06;5022908;28;20313;-47
2022/01/18 11:12:00;;;;;;;15.83;12.47;;;;;;;7.03;100.00;102353.09;5023584;28;20393;-46
2022/01/18 11:14:27;;;;;;;14.67;11.87;;;;;;;6.95;100.00;102340.78;5014001;28;20666;-46
2022/01/18 11:16:56;;;;;;;16.73;13.17;;;;;;;6.89;100.00;102337.94;5019485;28;20194;-47
2022/01/18 11:21:50;;;;;;;17.87;12.00;;;;;;;7.01;100.00;102335.88;5018283;28;20185;-47
2022/01/18 11:24:17;;;;;;;12.73;9.67;;;;;;;7.04;100.00;102339.38;5023865;28;20252;-46
2022/01/18 11:26:44;;;;;;;11.77;9.97;;;;;;;7.06;100.00;102336.06;5023869;28;20221;-47
2022/01/18 11:29:11;;;;;;;14.17;10.40;;;;;;;7.06;100.00;102324.84;5018097;28;20215;-47
2022/01/18 11:31:37;;;;;;;13.40;11.07;;;;;;;6.92;100.00;102337.22;5017295;28;20184;-46
2022/01/18 11:34:05;;;;;;;11.70;10.30;;;;;;;6.98;100.00;102325.47;5025468;28;20197;-46
2022/01/18 11:36:39;;;;;;;13.00;10.63;;;;;;;7.15;100.00;102332.94;5019900;28;20214;-46
2022/01/18 11:39:07;;;;;;;13.60;10.23;;;;;;;7.01;100.00;102329.84;5021671;28;20300;-46
2022/01/18 11:41:35;;;;;;;13.30;9.47;;;;;;;7.11;100.00;102325.91;5026191;28;20215;-47
2022/01/18 11:44:20;;;;;;;11.63;9.10;;;;;;;7.15;100.00;102326.09;5022590;28;20183;-47
2022/01/18 11:46:55;;;;;;;12.87;9.40;;;;;;;7.21;100.00;102330.59;5021271;28;20368;-47
2022/01/18 11:49:25;;;;;;;10.73;8.73;;;;;;;7.31;100.00;102324.09;5016261;28;20579;-47
2022/01/18 11:51:55;;;;;;;11.87;9.20;;;;;;;7.46;100.00;102313.50;5015548;28;20599;-46
2022/01/18 11:57:23;;;;;;;8.67;7.40;;;;;;;7.48;100.00;102312.72;5016782;28;20218;-46
2022/01/18 11:59:49;;;;;;;9.53;7.67;;;;;;;7.60;100.00;102308.81;5029453;28;20180;-46
2022/01/18 12:02:39;;;;;;;7.63;6.63;;;;;;;7.50;98.55;102317.91;5016353;28;20298;-47
2022/01/18 12:05:13;;;;;;;9.10;6.73;;;;;;;7.58;99.32;102310.47;5020655;28;20179;-46
2022/01/18 12:07:44;;;;;;;8.10;6.33;;;;;;;7.52;98.68;102305.97;5017419;28;20693;-46
2022/01/18 12:10:21;;;;;;;6.60;5.13;;;;;;;7.57;97.88;102301.88;5017149;28;20261;-46
2022/01/18 12:12:52;;;;;;;7.13;5.07;;;;;;;7.53;96.34;102300.00;5025133;28;20492;-47
2022/01/18 12:15:18;;;;;;;5.47;4.13;;;;;;;7.53;94.99;102294.84;5018099;28;20235;-46
2022/01/18 12:17:50;;;;;;;5.90;5.03;;;;;;;7.42;96.28;102291.88;5025047;28;20439;-47
2022/01/18 12:20:43;;;;;;;7.63;4.93;;;;;;;7.46;96.76;102296.31;5016573;28;20185;-46
2022/01/18 12:23:10;;;;;;;6.33;3.60;;;;;;;7.46;94.05;102291.16;5017569;28;20184;-47
2022/01/18 12:26:03;;;;;;;4.43;3.30;;;;;;;7.38;92.28;102286.56;5016111;28;20203;-47
2022/01/18 12:34:25;;;;;;;3.23;2.40;;;;;;;7.40;89.58;102283.25;5023674;28;20199;-46
2022/01/18 12:36:52;;;;;;;5.07;3.47;;;;;;;7.33;91.55;102288.97;5017826;28;20215;-46